createdAt,value
2023-05-06T00:00:37.731Z,99569.19
2023-05-06T00:05:41.890Z,99570.56
2023-05-06T00:10:46.424Z,99570.88
2023-05-06T00:15:49.443Z,99565.78
2023-05-06T00:20:52.471Z,99563.34
2023-05-06T00:25:57.233Z,99557.41
2023-05-06T00:31:00.601Z,99568.94
2023-05-06T00:36:03.735Z,99571.75
2023-05-06T00:41:08.186Z,99570.34
2023-05-06T00:46:12.276Z,99558.56
2023-05-06T00:51:15.660Z,99564.53
2023-05-06T00:56:20.898Z,99557.31
2023-05-06T01:01:25.200Z,99556.84
2023-05-06T01:06:36.530Z,99547.84
2023-05-06T01:11:49.885Z,99547.97
2023-05-06T01:16:56.925Z,99539.28
2023-05-06T01:22:02.565Z,99541.28
2023-05-06T01:27:08.049Z,99540.84
2023-05-06T01:32:32.907Z,99544.94
2023-05-06T01:37:46.403Z,99539.06
2023-05-06T01:42:50.937Z,99551.81
2023-05-06T01:47:54.761Z,99543.09
2023-05-06T01:53:02.275Z,99556.03
2023-05-06T01:58:06.724Z,99552.59
2023-05-06T02:03:09.863Z,99563.78
2023-05-06T02:08:13.458Z,99571.91
2023-05-06T02:13:19.566Z,99565.19
2023-05-06T02:18:22.791Z,99565.81
2023-05-06T02:23:25.814Z,99573.03
2023-05-06T02:28:30.185Z,99574.19
2023-05-06T02:33:33.228Z,99567.25
2023-05-06T02:38:36.577Z,99575.16
2023-05-06T02:43:40.946Z,99572.91
2023-05-06T02:48:44.497Z,99574.53
2023-05-06T02:53:47.676Z,99577.34
2023-05-06T02:58:52.171Z,99590.84
2023-05-06T03:03:55.314Z,99596.16
2023-05-06T03:08:58.435Z,99588.94
2023-05-06T03:14:02.842Z,99603.81
2023-05-06T03:19:06.459Z,99602.22
2023-05-06T03:24:09.577Z,99604.28
2023-05-06T03:29:13.972Z,99610.06
2023-05-06T03:34:16.996Z,99611.88
2023-05-06T03:39:20.420Z,99614.63
2023-05-06T03:44:24.796Z,99618.91
2023-05-06T03:49:27.828Z,99613.78
2023-05-06T03:54:31.470Z,99612.72
2023-05-06T03:59:35.984Z,99607.84
2023-05-06T04:04:39.442Z,99600.41
2023-05-06T04:09:42.556Z,99599.63
2023-05-06T04:14:46.939Z,99606.78
2023-05-06T04:19:50.006Z,99608.78
2023-05-06T04:24:53.053Z,99608.53
2023-05-06T04:29:57.443Z,99617.13
2023-05-06T04:35:00.710Z,99621.84
2023-05-06T04:40:06.197Z,99625.66
2023-05-06T04:45:12.288Z,99634.56
2023-05-06T04:50:15.621Z,99636.69
2023-05-06T04:55:18.754Z,99638.47
2023-05-06T05:00:26.136Z,99646.84
2023-05-06T05:05:29.725Z,99651.78
2023-05-06T05:10:32.954Z,99650.25
2023-05-06T05:15:38.520Z,99656.13
2023-05-06T05:20:41.892Z,99658.00
2023-05-06T05:25:45.080Z,99659.81
2023-05-06T05:30:50.017Z,99651.41
2023-05-06T05:35:53.434Z,99649.97
2023-05-06T05:40:56.956Z,99657.69
2023-05-06T05:46:01.350Z,99662.69
2023-05-06T05:51:05.036Z,99654.78
2023-05-06T05:56:08.562Z,99654.00
2023-05-06T06:01:13.006Z,99669.91
2023-05-06T06:06:16.175Z,99651.69
2023-05-06T06:11:19.208Z,99651.91
2023-05-06T06:16:23.947Z,99657.25
2023-05-06T06:21:27.661Z,99671.06
2023-05-06T06:26:30.911Z,99663.22
2023-05-06T06:31:36.584Z,99652.84
2023-05-06T06:36:44.996Z,99646.00
2023-05-06T06:41:48.052Z,99637.19
2023-05-06T06:46:52.406Z,99634.31
2023-05-06T06:51:56.701Z,99629.63
2023-05-06T06:57:00.315Z,99631.22
2023-05-06T07:02:04.728Z,99632.09
2023-05-06T07:07:08.037Z,99634.59
2023-05-06T07:12:12.108Z,99638.81
2023-05-06T07:17:16.792Z,99642.06
2023-05-06T07:22:20.242Z,99647.06
2023-05-06T07:27:24.043Z,99643.56
2023-05-06T07:32:28.999Z,99645.63
2023-05-06T07:37:32.352Z,99647.13
2023-05-06T07:42:35.561Z,99647.09
2023-05-06T07:47:40.048Z,99659.38
2023-05-06T07:52:43.540Z,99653.38
2023-05-06T07:57:47.071Z,99663.03
2023-05-06T08:02:51.530Z,99667.63
2023-05-06T08:07:55.899Z,99662.88
2023-05-06T08:12:58.994Z,99664.44
2023-05-06T08:18:13.705Z,99662.75
2023-05-06T08:23:24.662Z,99667.72
2023-05-06T08:28:29.298Z,99664.84
2023-05-06T08:33:33.689Z,99672.91
2023-05-06T08:38:36.765Z,99674.66
2023-05-06T08:43:42.515Z,99666.44
2023-05-06T08:48:46.985Z,99674.19
2023-05-06T08:53:51.491Z,99679.03
2023-05-06T08:58:55.590Z,99672.94
2023-05-06T09:04:00.637Z,99666.03
2023-05-06T09:09:04.123Z,99669.69
2023-05-06T09:14:09.690Z,99674.84
2023-05-06T09:19:14.880Z,99664.66
2023-05-06T09:24:18.958Z,99671.44
2023-05-06T09:29:22.271Z,99668.09
2023-05-06T09:34:28.455Z,99652.56
2023-05-06T09:39:31.529Z,99660.09
2023-05-06T09:44:34.792Z,99658.06
2023-05-06T09:49:39.889Z,99657.88
2023-05-06T09:54:43.181Z,99661.53
2023-05-06T09:59:47.014Z,99648.91
2023-05-06T10:04:52.068Z,99642.00
2023-05-06T10:09:55.747Z,99639.22
2023-05-06T10:14:58.868Z,99641.84
2023-05-06T10:20:04.856Z,99640.66
2023-05-06T10:25:16.793Z,99644.72
2023-05-06T10:30:20.827Z,99641.47
2023-05-06T10:35:35.528Z,99627.72
2023-05-06T10:40:38.817Z,99622.63
2023-05-06T10:46:04.086Z,99615.16
2023-05-06T10:51:24.067Z,99612.16
2023-05-06T10:56:27.660Z,99598.38
2023-05-06T11:01:30.957Z,99598.59
2023-05-06T11:06:41.054Z,99592.47
2023-05-06T11:11:52.082Z,99591.63
2023-05-06T11:16:56.758Z,99598.38
2023-05-06T11:22:03.838Z,99588.22
2023-05-06T11:27:07.024Z,99584.81
2023-05-06T11:32:23.458Z,99582.03
2023-05-06T11:37:29.932Z,99589.63
2023-05-06T11:42:33.003Z,99592.53
2023-05-06T11:47:36.052Z,99581.00
2023-05-06T11:52:40.828Z,99578.72
2023-05-06T11:57:46.164Z,99586.59
2023-05-06T12:02:49.314Z,99587.47
2023-05-06T12:07:54.223Z,99589.91
2023-05-06T12:12:57.303Z,99584.63
2023-05-06T12:18:00.778Z,99576.88
2023-05-06T12:23:08.928Z,99571.75
2023-05-06T12:28:15.446Z,99574.09
2023-05-06T12:33:18.521Z,99575.16
2023-05-06T12:38:22.886Z,99570.22
2023-05-06T12:43:32.454Z,99557.69
2023-05-06T12:48:35.974Z,99568.41
2023-05-06T12:53:40.345Z,99568.94
2023-05-06T12:58:43.388Z,99567.56
2023-05-06T13:03:46.435Z,99552.59
2023-05-06T13:08:50.963Z,99558.16
2023-05-06T13:13:53.985Z,99551.91
2023-05-06T13:18:57.062Z,99545.44
2023-05-06T13:24:01.405Z,99537.41
2023-05-06T13:29:04.943Z,99535.72
2023-05-06T13:34:07.971Z,99529.06
2023-05-06T14:11:15.606Z,99484.59
2023-05-06T14:16:18.738Z,99486.09
2023-05-06T14:21:21.888Z,99492.06
2023-05-06T14:26:26.785Z,99476.53
2023-05-06T14:31:30.614Z,99478.41
2023-05-06T14:36:33.911Z,99472.69
2023-05-06T14:41:38.587Z,99463.75
2023-05-06T14:46:41.617Z,99466.63
2023-05-06T14:51:45.782Z,99473.56
2023-05-06T14:56:50.294Z,99460.22
2023-05-06T15:01:53.539Z,99457.31
2023-05-06T15:06:57.603Z,99449.66
2023-05-06T15:12:02.035Z,99464.63
2023-05-06T15:17:05.298Z,99463.63
2023-05-06T15:22:08.699Z,99467.25
2023-05-06T15:27:13.720Z,99463.69
2023-05-06T15:32:17.056Z,99462.03
2023-05-06T15:37:23.744Z,99460.56
2023-05-06T15:42:28.399Z,99467.00
2023-05-06T15:47:31.709Z,99468.41
2023-05-06T15:52:34.789Z,99468.47
2023-05-06T15:57:39.784Z,99458.91
2023-05-06T16:02:43.247Z,99468.31
2023-05-06T16:07:46.410Z,99461.34
2023-05-06T16:12:51.021Z,99469.28
2023-05-06T16:17:54.257Z,99473.53
2023-05-06T16:22:57.371Z,99463.84
2023-05-06T16:28:02.388Z,99464.06
2023-05-06T16:33:05.886Z,99455.84
2023-05-06T16:38:09.308Z,99466.22
2023-05-06T16:43:14.165Z,99457.13
2023-05-06T16:48:17.620Z,99444.84
2023-05-06T16:53:20.874Z,99460.97
2023-05-06T16:58:26.152Z,99449.13
2023-05-06T17:03:29.976Z,99447.50
2023-05-06T17:08:36.299Z,99444.53
2023-05-06T17:13:42.228Z,99434.88
2023-05-06T17:18:45.705Z,99437.88
2023-05-06T17:23:50.810Z,99439.63
2023-05-06T17:28:55.310Z,99443.03
2023-05-06T17:33:58.919Z,99441.34
2023-05-06T17:39:06.171Z,99436.69
2023-05-06T17:44:10.916Z,99430.31
2023-05-06T17:49:14.109Z,99438.34
2023-05-06T17:54:17.223Z,99435.59
2023-05-06T17:59:21.636Z,99443.22
2023-05-06T18:04:24.796Z,99443.81
2023-05-06T18:09:27.831Z,99452.47
2023-05-06T18:14:32.663Z,99461.56
2023-05-06T18:19:35.737Z,99467.88
2023-05-06T18:24:38.763Z,99472.97
2023-05-06T18:29:43.130Z,99475.81
2023-05-06T18:34:46.171Z,99479.66
2023-05-06T18:39:49.274Z,99481.25
2023-05-06T18:44:54.312Z,99476.59
2023-05-06T18:49:57.581Z,99475.69
2023-05-06T18:55:02.520Z,99477.50
2023-05-06T19:00:08.836Z,99484.19
2023-05-06T19:05:12.812Z,99479.88
2023-05-06T19:10:16.496Z,99493.25
2023-05-06T19:15:21.306Z,99496.78
2023-05-06T19:20:24.546Z,99502.19
2023-05-06T19:25:28.001Z,99504.00
2023-05-06T19:30:34.740Z,99495.50
2023-05-06T19:35:39.152Z,99501.84
2023-05-06T19:40:42.180Z,99504.69
2023-05-06T19:45:46.762Z,99506.72
2023-05-06T19:50:50.166Z,99529.75
2023-05-06T19:55:55.805Z,99532.50
2023-05-06T20:01:00.423Z,99531.91
2023-05-06T20:06:04.090Z,99539.19
2023-05-06T20:11:07.248Z,99534.34
2023-05-06T20:16:12.906Z,99528.69
2023-05-06T20:21:16.713Z,99528.78
2023-05-06T20:26:20.590Z,99529.47
2023-05-06T20:31:25.374Z,99529.09
2023-05-06T20:36:29.191Z,99532.38
2023-05-06T20:41:32.980Z,99529.81
2023-05-06T20:46:37.449Z,99531.06
2023-05-06T20:51:40.796Z,99526.81
2023-05-06T20:56:44.248Z,99536.63
2023-05-06T21:01:48.705Z,99519.94
2023-05-06T21:06:51.730Z,99523.22
2023-05-06T21:11:54.824Z,99526.53
2023-05-06T21:16:59.709Z,99528.25
2023-05-06T21:22:02.912Z,99520.78
2023-05-06T21:27:06.035Z,99523.88
2023-05-06T21:32:10.483Z,99535.50
2023-05-06T21:37:13.551Z,99527.56
2023-05-06T21:42:16.650Z,99521.06
2023-05-06T21:47:21.099Z,99522.84
2023-05-06T21:52:24.935Z,99517.94
2023-05-06T21:57:28.062Z,99520.66
2023-05-06T22:02:32.516Z,99522.72
2023-05-06T22:07:35.688Z,99518.22
2023-05-06T22:12:38.773Z,99519.63
2023-05-06T22:17:43.455Z,99515.56
2023-05-06T22:22:46.558Z,99507.19
2023-05-06T22:27:49.616Z,99509.13
2023-05-06T22:32:54.604Z,99521.22
2023-05-06T22:37:57.796Z,99516.47
2023-05-06T22:43:01.053Z,99513.81
2023-05-06T22:48:06.267Z,99514.00
2023-05-06T22:53:14.950Z,99512.13
2023-05-06T22:58:18.315Z,99515.03
2023-05-06T23:03:23.268Z,99505.63
2023-05-06T23:08:26.368Z,99507.69
2023-05-06T23:13:31.203Z,99501.19
2023-05-06T23:18:36.107Z,99506.81
2023-05-06T23:23:39.188Z,99503.63
2023-05-06T23:28:42.329Z,99508.59
2023-05-06T23:33:46.763Z,99518.06
2023-05-06T23:38:50.050Z,99511.25
2023-05-06T23:43:53.142Z,99525.47
2023-05-06T23:48:57.616Z,99517.81
2023-05-06T23:54:00.953Z,99513.38
2023-05-06T23:59:04.520Z,99514.41
